Time;durP1;ratioP1;P1;durP2;ratioP2;P2;SDS_P1;SDS_P2;PMS_P1;PMS_P2;Temp;Humidity;BMP_temperature;BMP_pressure;BME280_temperature;BME280_humidity;BME280_pressure;Samples;Min_cycle;Max_cycle;Signal;HPM_P1;HPM_P2
2022/10/07 00:02:20;;;;;;;;;60.00;50.00;;;;;11.35;100.00;100956.56;6307982;20;3485658;-57
2022/10/07 00:04:49;;;;;;;;;64.00;52.00;;;;;11.27;100.00;100947.91;6306843;20;3625252;-55
2022/10/07 00:07:18;;;;;;;;;63.33;50.33;;;;;11.25;100.00;100949.84;6305370;20;3614858;-56
2022/10/07 00:09:47;;;;;;;;;41.33;34.33;;;;;11.21;100.00;100949.94;6278497;20;2873327;-57
2022/10/07 00:12:17;;;;;;;;;64.67;49.33;;;;;11.12;100.00;100954.88;6303355;20;3638847;-56
2022/10/07 00:14:47;;;;;;;;;58.00;46.00;;;;;11.16;100.00;100949.28;6308062;20;2864255;-56
2022/10/07 00:17:16;;;;;;;;;63.33;50.00;;;;;11.26;100.00;100948.88;6307101;20;3613884;-57
2022/10/07 00:19:46;;;;;;;;;64.67;51.33;;;;;11.12;100.00;100955.72;6277865;20;3622222;-55
2022/10/07 00:22:14;;;;;;;;;62.33;50.33;;;;;11.03;100.00;100956.13;6305952;20;3625257;-54
2022/10/07 00:24:43;;;;;;;;;64.67;51.33;;;;;11.15;100.00;100963.66;6276525;20;3625292;-56
2022/10/07 00:27:13;;;;;;;;;61.33;49.00;;;;;11.09;100.00;100963.06;6271795;20;2877577;-56
2022/10/07 00:29:42;;;;;;;;;61.00;48.67;;;;;10.81;100.00;100960.69;6309173;20;2860767;-56
2022/10/07 00:32:11;;;;;;;;;57.67;47.00;;;;;10.95;100.00;100958.25;6308748;20;3604533;-56
2022/10/07 00:34:40;;;;;;;;;57.00;47.67;;;;;10.75;100.00;100960.00;6277027;20;2869111;-53
2022/10/07 00:37:09;;;;;;;;;54.00;46.00;;;;;10.82;100.00;100957.94;6307051;20;3613850;-57
2022/10/07 00:39:39;;;;;;;;;59.67;49.33;;;;;10.72;100.00;100954.75;6313929;20;3607654;-54
2022/10/07 00:42:13;;;;;;;;;63.33;50.33;;;;;10.92;100.00;100945.84;6310610;20;3612828;-56
2022/10/07 00:44:47;;;;;;;;;67.67;53.00;;;;;10.62;100.00;100949.81;6284176;20;3624222;-54
2022/10/07 00:47:30;;;;;;;;;65.67;51.00;;;;;10.93;100.00;100938.66;6314012;20;3628430;-57
2022/10/07 00:50:30;;;;;;;;;65.33;51.67;;;;;10.80;100.00;100932.06;6281085;20;3629440;-55
2022/10/07 00:53:02;;;;;;;;;62.67;50.00;;;;;10.55;100.00;100933.09;6281623;20;3607808;-57
2022/10/07 00:55:32;;;;;;;;;67.67;51.00;;;;;10.63;100.00;100930.06;6313530;20;3635706;-55
2022/10/07 00:58:08;;;;;;;;;62.00;50.00;;;;;10.55;100.00;100933.09;6278847;20;3621091;-56
2022/10/07 01:00:39;;;;;;;;;64.67;50.67;;;;;10.60;100.00;100920.34;6279079;20;3617023;-56
2022/10/07 01:03:08;;;;;;;;;63.33;51.00;;;;;10.69;100.00;100930.72;6310631;20;2873334;-56
2022/10/07 01:05:37;;;;;;;;;66.00;52.33;;;;;10.68;100.00;100918.19;6314759;20;3637787;-55
2022/10/07 01:08:06;;;;;;;;;56.67;48.00;;;;;10.62;100.00;100934.59;6283938;20;3599227;-54
2022/10/07 01:11:00;;;;;;;;;64.00;50.00;;;;;10.75;100.00;100933.13;6280452;20;3606970;-57
2022/10/07 01:13:46;;;;;;;;;60.00;48.33;;;;;10.68;100.00;100933.44;6311264;20;2861743;-56
2022/10/07 01:16:55;;;;;;;;;60.00;48.33;;;;;10.58;100.00;100926.72;6307320;20;3598175;-55
2022/10/07 01:20:02;;;;;;;;;63.00;52.00;;;;;10.64;100.00;100921.97;6310681;20;3619087;-56
2022/10/07 01:23:00;;;;;;;;;64.00;50.33;;;;;10.68;100.00;100920.88;6310959;20;3612867;-56
2022/10/07 01:26:34;;;;;;;;;59.67;49.00;;;;;10.59;100.00;100921.28;6311994;20;3606664;-56
2022/10/07 01:29:34;;;;;;;;;62.33;50.33;;;;;10.62;100.00;100918.47;6266745;20;3623161;-55
2022/10/07 01:32:21;;;;;;;;;63.33;50.67;;;;;10.40;100.00;100922.97;6310256;20;3632401;-55
2022/10/07 01:34:53;;;;;;;;;63.33;52.67;;;;;10.09;100.00;100922.38;6309613;20;2865946;-57
2022/10/07 01:37:24;;;;;;;;;63.33;50.67;;;;;9.76;100.00;100900.41;6312833;20;3602429;-56
2022/10/07 01:40:03;;;;;;;;;57.33;47.33;;;;;10.11;100.00;100919.66;6278124;20;2867082;-56
2022/10/07 01:42:33;;;;;;;;;62.33;51.00;;;;;10.23;100.00;100921.81;6306754;20;2868122;-56
2022/10/07 01:45:05;;;;;;;;;57.33;45.67;;;;;10.13;100.00;100914.19;6305881;20;3621253;-55
2022/10/07 01:47:35;;;;;;;;;64.00;50.33;;;;;10.12;100.00;100913.31;6309534;20;3622180;-56
2022/10/07 01:50:12;;;;;;;;;60.33;48.33;;;;;10.03;100.00;100905.63;6311533;20;3614903;-57
2022/10/07 01:53:11;;;;;;;;;63.33;49.33;;;;;10.07;100.00;100905.44;6309261;20;3637836;-56
2022/10/07 01:55:45;;;;;;;;;59.50;48.50;;;;;10.07;100.00;100915.31;6276435;20;2852483;-56
2022/10/07 01:58:55;;;;;;;;;63.33;50.67;;;;;10.12;100.00;100907.97;6279786;20;3629437;-55
2022/10/07 02:01:42;;;;;;;;;59.67;49.00;;;;;10.32;100.00;100908.06;6314032;20;3591937;-55
2022/10/07 02:04:55;;;;;;;;;65.67;53.33;;;;;10.14;100.00;100911.47;6275076;20;3627361;-55
2022/10/07 02:07:50;;;;;;;;;64.67;52.00;;;;;10.11;100.00;100911.59;6308796;20;3612843;-55
2022/10/07 02:11:12;;;;;;;;;64.67;51.00;;;;;9.92;100.00;100908.75;6280780;20;3634758;-57
2022/10/07 02:14:11;;;;;;;;;59.00;49.00;;;;;10.16;100.00;100906.03;6281626;20;2809766;-56
2022/10/07 02:16:56;;;;;;;;;68.00;52.67;;;;;10.10;100.00;100908.00;6276257;20;3630556;-53
2022/10/07 02:19:33;;;;;;;;;67.67;55.00;;;;;10.09;100.00;100908.09;6306010;20;3607628;-53
2022/10/07 02:22:03;;;;;;;;;67.00;52.33;;;;;10.06;100.00;100906.41;6305535;20;3629551;-55
2022/10/07 02:24:37;;;;;;;;;61.00;47.33;;;;;10.03;100.00;100903.84;6277822;20;3613773;-53
2022/10/07 02:27:11;;;;;;;;;67.00;52.00;;;;;10.06;100.00;100914.44;6304284;20;3621087;-56
2022/10/07 02:29:43;;;;;;;;;64.33;49.67;;;;;10.14;100.00;100905.19;6308392;20;3612812;-56
2022/10/07 02:32:20;;;;;;;;;59.00;49.00;;;;;10.00;100.00;100906.63;6274696;20;3606270;-56
2022/10/07 02:34:59;;;;;;;;;65.67;52.67;;;;;9.88;100.00;100909.81;6308246;20;3618010;-56
2022/10/07 02:37:34;;;;;;;;;62.00;49.33;;;;;9.96;100.00;100906.84;6277929;20;2864903;-56
2022/10/07 02:40:05;;;;;;;;;56.67;48.33;;;;;9.99;100.00;100901.34;6307615;20;2848216;-47
2022/10/07 02:42:55;;;;;;;;;64.33;49.00;;;;;9.80;100.00;100912.78;6308780;20;3630521;-48
2022/10/07 02:45:42;;;;;;;;;61.67;49.67;;;;;10.03;100.00;100919.03;6307330;20;3629943;-49
2022/10/07 02:48:40;;;;;;;;;64.33;51.33;;;;;9.87;100.00;100908.03;6306712;20;3605636;-46
2022/10/07 02:51:19;;;;;;;;;59.00;48.33;;;;;9.81;100.00;100909.16;6306827;20;3603508;-47
2022/10/07 02:53:52;;;;;;;;;59.67;49.00;;;;;9.77;100.00;100901.28;6308952;20;3606542;-50
2022/10/07 02:56:25;;;;;;;;;58.00;48.00;;;;;9.93;100.00;100909.63;6303690;20;2856647;-49
2022/10/07 02:58:54;;;;;;;;;59.33;50.00;;;;;9.75;100.00;100904.03;6312952;20;3613908;-47
2022/10/07 03:01:32;;;;;;;;;59.00;49.00;;;;;9.78;100.00;100898.56;6275333;20;2854444;-49
2022/10/07 03:04:02;;;;;;;;;60.33;48.00;;;;;9.74;100.00;100902.31;6275231;20;2868537;-49
2022/10/07 03:06:31;;;;;;;;;60.33;50.00;;;;;9.82;100.00;100891.25;6302642;20;3616984;-47
2022/10/07 03:09:02;;;;;;;;;60.00;49.33;;;;;9.77;100.00;100901.28;6276859;20;2873321;-48
2022/10/07 03:11:31;;;;;;;;;64.00;50.00;;;;;9.86;100.00;100896.44;6307551;20;3623324;-48
2022/10/07 03:14:02;;;;;;;;;59.33;49.33;;;;;9.73;100.00;100897.84;6308762;20;2858723;-51
2022/10/07 03:16:31;;;;;;;;;55.00;46.50;;;;;9.77;100.00;100906.66;6308539;20;2852390;-51
2022/10/07 03:19:00;;;;;;;;;56.00;45.00;;;;;9.82;100.00;100910.03;6276672;20;2844159;-49
2022/10/07 03:21:31;;;;;;;;;59.00;48.50;;;;;9.57;100.00;100910.97;6277467;20;2869119;-47
2022/10/07 03:24:03;;;;;;;;;60.50;48.50;;;;;9.67;100.00;100901.66;6280932;20;2861857;-47
2022/10/07 03:26:34;;;;;;;;;60.00;48.50;;;;;9.62;100.00;100908.13;6275862;20;2871173;-47
2022/10/07 03:29:04;;;;;;;;;56.50;45.00;;;;;9.67;100.00;100915.06;6308087;20;2860687;-48
2022/10/07 03:31:33;;;;;;;;;58.33;47.00;;;;;9.54;100.00;100915.59;6278396;20;2856534;-47
2022/10/07 03:34:03;;;;;;;;;58.67;46.67;;;;;9.63;100.00;100910.72;6304509;20;3617947;-47
2022/10/07 03:36:33;;;;;;;;;60.33;47.33;;;;;9.36;100.00;100904.63;6308180;20;3617965;-46
2022/10/07 03:39:02;;;;;;;;;59.00;48.00;;;;;9.31;100.00;100911.06;6309911;20;2858619;-49
2022/10/07 03:41:32;;;;;;;;;58.00;48.00;;;;;9.32;100.00;100911.03;6273010;20;2851452;-49
2022/10/07 03:44:01;;;;;;;;;76.33;56.33;;;;;9.00;100.00;100915.75;6277208;20;3638836;-50
2022/10/07 03:46:31;;;;;;;;;81.00;58.33;;;;;9.07;100.00;100915.53;6306597;20;3641016;-47
2022/10/07 03:49:02;;;;;;;;;70.33;54.33;;;;;8.96;100.00;100919.44;6308028;20;3644074;-49
2022/10/07 03:51:32;;;;;;;;;76.33;56.67;;;;;9.04;100.00;100911.16;6303037;20;3651396;-47
2022/10/07 03:54:01;;;;;;;;;70.67;52.00;;;;;9.03;100.00;100904.06;6276339;20;3640046;-47
2022/10/07 03:56:31;;;;;;;;;67.00;51.33;;;;;9.17;100.00;100900.88;6303018;20;3621194;-52
2022/10/07 03:59:01;;;;;;;;;66.00;53.67;;;;;9.21;100.00;100908.72;6305651;20;2879577;-49
2022/10/07 04:01:30;;;;;;;;;66.33;53.00;;;;;9.41;100.00;100901.78;6307700;20;2870203;-51
2022/10/07 04:04:00;;;;;;;;;63.67;50.67;;;;;9.41;100.00;100894.59;6308125;20;3600371;-46
2022/10/07 04:06:29;;;;;;;;;67.00;51.67;;;;;9.52;100.00;100890.63;6309128;20;3609677;-47
2022/10/07 04:08:58;;;;;;;;;63.00;51.00;;;;;9.44;100.00;100897.16;6277428;20;2878447;-48
2022/10/07 04:11:28;;;;;;;;;67.67;51.33;;;;;9.44;100.00;100897.16;6314493;20;3616915;-47
2022/10/07 04:13:59;;;;;;;;;62.33;50.33;;;;;9.52;100.00;100898.69;6312347;20;3618016;-50
2022/10/07 04:16:28;;;;;;;;;60.00;49.00;;;;;9.40;100.00;100892.84;6309733;20;2862790;-50
2022/10/07 04:18:57;;;;;;;;;65.33;52.00;;;;;9.49;100.00;100891.63;6281917;20;3619025;-55
2022/10/07 04:21:27;;;;;;;;;61.33;49.33;;;;;9.47;100.00;100888.13;6310084;20;3627476;-56
2022/10/07 04:23:56;;;;;;;;;66.33;52.00;;;;;9.28;100.00;100890.63;6313186;20;3638782;-55
2022/10/07 04:26:25;;;;;;;;;65.00;50.67;;;;;9.38;100.00;100883.13;6310173;20;3631548;-57
2022/10/07 04:28:55;;;;;;;;;64.33;50.67;;;;;9.28;100.00;100887.94;6279636;20;3625335;-56
2022/10/07 04:31:24;;;;;;;;;68.33;54.67;;;;;9.23;100.00;100884.56;6310803;20;3619809;-55
2022/10/07 04:33:53;;;;;;;;;68.67;54.00;;;;;9.02;100.00;100884.41;6312896;20;3623165;-54
2022/10/07 04:36:24;;;;;;;;;71.00;56.67;;;;;8.97;100.00;100872.09;6276710;20;3624873;-57
2022/10/07 04:38:53;;;;;;;;;71.33;55.00;;;;;8.80;100.00;100883.44;6312366;20;3626321;-56
2022/10/07 04:41:22;;;;;;;;;75.00;59.00;;;;;8.86;100.00;100885.88;6312757;20;3632603;-55
2022/10/07 04:43:52;;;;;;;;;70.33;55.00;;;;;8.79;100.00;100887.00;6282764;20;3624672;-62
2022/10/07 04:46:27;;;;;;;;;61.00;49.00;;;;;8.82;100.00;100888.72;6309387;20;2873198;-62
2022/10/07 04:48:57;;;;;;;;;69.33;54.33;;;;;8.67;100.00;100877.63;6279702;20;3612764;-61
2022/10/07 04:51:26;;;;;;;;;60.00;49.50;;;;;8.53;100.00;100885.22;6308168;20;2846178;-61
2022/10/07 04:53:55;;;;;;;;;67.67;53.33;;;;;8.58;100.00;100891.31;6278351;20;3624397;-61
2022/10/07 04:56:27;;;;;;;;;67.00;53.67;;;;;8.59;100.00;100881.50;6303590;20;3618013;-61
2022/10/07 04:58:56;;;;;;;;;67.00;54.33;;;;;8.64;100.00;100887.56;6311334;20;3624605;-61
2022/10/07 05:01:26;;;;;;;;;70.33;56.33;;;;;8.50;100.00;100888.88;6308752;20;3629422;-61
2022/10/07 05:03:56;;;;;;;;;69.00;55.00;;;;;8.77;100.00;100887.09;6310862;20;3621103;-61
2022/10/07 05:06:26;;;;;;;;;70.67;53.33;;;;;8.54;100.00;100887.88;6309888;20;3634046;-62
2022/10/07 05:08:55;;;;;;;;;70.00;54.00;;;;;8.56;100.00;100887.81;6315345;20;3627445;-61
2022/10/07 05:11:25;;;;;;;;;73.33;57.00;;;;;8.57;100.00;100889.56;6311868;20;3615864;-61
2022/10/07 05:13:54;;;;;;;;;70.67;54.00;;;;;8.50;100.00;100893.38;6315636;20;3637417;-61
2022/10/07 05:16:24;;;;;;;;;70.67;56.33;;;;;8.42;100.00;100907.00;6311654;20;3622200;-61
2022/10/07 05:18:53;;;;;;;;;71.33;56.00;;;;;8.55;100.00;100897.63;6312239;20;3635642;-61
2022/10/07 05:21:23;;;;;;;;;69.67;55.00;;;;;8.83;100.00;100901.19;6309722;20;3627332;-61
2022/10/07 05:23:52;;;;;;;;;66.33;53.67;;;;;8.74;100.00;100897.00;6309608;20;3619056;-61
2022/10/07 05:26:22;;;;;;;;;68.33;51.67;;;;;8.62;100.00;100910.84;6311774;20;3636945;-61
2022/10/07 05:28:51;;;;;;;;;66.67;53.33;;;;;8.49;100.00;100908.56;6312277;20;3621263;-62
2022/10/07 05:31:21;;;;;;;;;72.67;56.67;;;;;8.83;100.00;100906.53;6309771;20;3622158;-61
2022/10/07 05:33:51;;;;;;;;;71.00;57.33;;;;;8.71;100.00;100900.66;6313395;20;3624266;-61
2022/10/07 05:36:20;;;;;;;;;79.67;65.00;;;;;8.83;100.00;100899.38;6310293;20;3614886;-61
2022/10/07 05:38:56;;;;;;;;;83.00;66.00;;;;;8.84;100.00;100893.09;6313187;20;4414844;-61
2022/10/07 05:41:29;;;;;;;;;81.33;62.00;;;;;8.92;100.00;100907.06;6312030;20;3659712;-61
2022/10/07 05:44:00;;;;;;;;;75.00;60.00;;;;;8.85;100.00;100899.34;6280090;20;2866002;-61
2022/10/07 05:46:29;;;;;;;;;78.33;62.67;;;;;9.04;100.00;100904.91;6309417;20;3649207;-61
2022/10/07 05:48:59;;;;;;;;;79.00;61.00;;;;;9.20;100.00;100906.13;6280551;20;3632656;-61
2022/10/07 05:51:28;;;;;;;;;78.00;62.67;;;;;9.34;100.00;100898.44;6314325;20;3645046;-61
2022/10/07 05:53:57;;;;;;;;;77.00;63.00;;;;;9.47;100.00;100906.03;6284535;20;3629437;-61
2022/10/07 05:56:27;;;;;;;;;76.25;58.75;;;;;9.64;100.00;100900.91;6282144;20;3641012;-61
2022/10/07 05:58:56;;;;;;;;;78.67;60.67;;;;;9.93;100.00;100898.91;6313160;20;3649198;-61
2022/10/07 06:01:27;;;;;;;;;77.00;61.00;;;;;9.96;100.00;100898.78;6271783;20;2890009;-61
2022/10/07 06:03:57;;;;;;;;;71.00;57.00;;;;;10.44;100.00;100908.50;6307285;20;3625241;-61
2022/10/07 06:06:28;;;;;;;;;66.00;54.00;;;;;10.65;100.00;100907.59;6278887;20;3610666;-61
2022/10/07 06:13:06;;;;;;;;;68.33;55.33;;;;;10.85;100.00;100903.16;6307853;20;3625477;-62
2022/10/07 06:14:35;;;;;;;;;63.00;50.33;;;;;11.48;100.00;100917.41;6278420;20;2873319;-61
2022/10/07 06:17:03;;;;;;;;;71.00;56.33;;;;;11.50;100.00;100918.19;6311542;20;3630534;-61
2022/10/07 06:19:35;;;;;;;;;75.00;61.00;;;;;11.75;100.00;100917.94;6278455;20;3642993;-61
2022/10/07 06:22:04;;;;;;;;;110.50;100.50;;;;;11.86;100.00;100914.78;6301785;20;1942037;-61
2022/10/07 06:24:34;;;;;;;;;98.50;87.75;;;;;12.46;100.00;100923.53;6284290;20;4409638;-61
2022/10/07 06:27:03;;;;;;;;;87.75;77.25;;;;;12.41;100.00;100922.88;6310699;20;4414879;-61
2022/10/07 06:29:33;;;;;;;;;86.50;79.00;;;;;12.63;100.00;100921.81;6311946;20;4422641;-62
2022/10/07 06:32:02;;;;;;;;;72.25;55.25;;;;;12.68;100.00;100926.00;6310274;20;3639879;-62
2022/10/07 06:34:32;;;;;;;;;64.00;50.00;;;;;12.96;100.00;100930.88;6310772;20;4382575;-62
2022/10/07 06:37:00;;;;;;;;;67.00;53.33;;;;;13.39;100.00;100920.56;6312022;20;3624754;-62
2022/10/07 06:39:29;;;;;;;;;68.00;54.33;;;;;13.44;100.00;100914.06;6281168;20;3618064;-61
2022/10/07 06:41:58;;;;;;;;;53.33;44.67;;;;;13.50;100.00;100919.09;6278421;20;2855606;-62
2022/10/07 06:44:29;;;;;;;;;60.00;48.33;;;;;14.68;99.48;100917.88;6311303;20;3613802;-61
2022/10/07 06:46:58;;;;;;;;;61.33;50.33;;;;;18.91;78.41;100931.03;6278513;20;3623900;-62
2022/10/07 06:49:27;;;;;;;;;50.33;42.00;;;;;19.87;71.61;100931.59;6314343;20;3597225;-62
2022/10/07 06:51:56;;;;;;;;;47.33;40.00;;;;;19.99;71.26;100939.78;6279480;20;2863903;-62
2022/10/07 06:54:25;;;;;;;;;45.67;39.00;;;;;19.81;69.47;100931.25;6310435;20;3586801;-62
2022/10/07 06:56:54;;;;;;;;;50.00;40.67;;;;;16.33;82.61;100920.25;6276140;20;2854998;-62
2022/10/07 06:59:23;;;;;;;;;45.67;37.67;;;;;15.49;90.45;100910.25;6312284;20;3615850;-62
2022/10/07 07:01:52;;;;;;;;;62.00;49.67;;;;;15.33;91.16;100917.59;6281390;20;3613927;-61
2022/10/07 07:04:21;;;;;;;;;63.25;51.25;;;;;15.23;92.19;100911.00;6280661;20;3622222;-61
2022/10/07 07:06:50;;;;;;;;;50.33;41.00;;;;;15.29;93.15;100916.03;6310700;20;3573300;-62
2022/10/07 07:09:21;;;;;;;;;45.33;36.33;;;;;15.11;93.96;100916.19;6278079;20;3620460;-61
2022/10/07 07:11:50;;;;;;;;;43.00;37.33;;;;;15.53;93.32;100913.63;6311785;20;3590923;-62
2022/10/07 07:14:24;;;;;;;;;46.67;39.00;;;;;15.19;93.61;100902.19;6279745;20;2844005;-61
2022/10/07 07:16:53;;;;;;;;;53.00;44.00;;;;;15.48;94.03;100908.53;6310170;20;2725476;-62
2022/10/07 07:19:22;;;;;;;;;61.75;48.00;;;;;15.54;94.00;100904.56;6311715;20;3624328;-62
2022/10/07 07:21:51;;;;;;;;;50.00;41.00;;;;;15.47;94.17;100903.19;6311486;20;3547188;-61
2022/10/07 07:24:20;;;;;;;;;47.00;39.33;;;;;15.73;93.10;100907.88;6315468;20;3579436;-61
2022/10/07 07:26:49;;;;;;;;;58.67;47.33;;;;;15.97;92.31;100902.72;6278445;20;2868108;-61
2022/10/07 07:29:19;;;;;;;;;42.33;36.33;;;;;15.83;91.96;100905.44;6313898;20;3591958;-61
2022/10/07 07:31:49;;;;;;;;;47.00;39.00;;;;;16.00;93.10;100913.34;6280149;20;2846176;-62
2022/10/07 07:34:19;;;;;;;;;44.33;37.67;;;;;16.35;90.79;100912.91;6280105;20;2850406;-62
2022/10/07 07:36:52;;;;;;;;;43.00;37.33;;;;;16.53;90.21;100905.34;6312270;20;3585675;-62
2022/10/07 07:39:21;;;;;;;;;47.33;38.67;;;;;16.39;90.12;100903.56;6277024;20;3615937;-62
2022/10/07 07:41:51;;;;;;;;;36.67;32.33;;;;;16.93;86.89;100902.72;6311870;20;3591970;-62
2022/10/07 07:44:20;;;;;;;;;51.33;41.00;;;;;16.99;87.13;100901.41;6283113;20;3609643;-60
2022/10/07 07:46:51;;;;;;;;;58.67;47.67;;;;;17.19;85.91;100900.88;6290074;20;3588831;-60
2022/10/07 07:49:21;;;;;;;;;42.33;37.00;;;;;17.62;85.36;100905.16;6285780;20;2864020;-59
2022/10/07 07:51:50;;;;;;;;;45.67;38.33;;;;;17.49;84.73;100905.16;6318982;20;3570195;-59
2022/10/07 07:54:19;;;;;;;;;39.67;34.67;;;;;17.31;85.49;100902.75;6288463;20;3603370;-59
2022/10/07 07:56:47;;;;;;;;;52.33;42.33;;;;;17.86;85.49;100895.25;6286783;20;3596137;-60
2022/10/07 07:59:17;;;;;;;;;38.00;33.67;;;;;18.17;83.95;100904.75;6283049;20;3598176;-60
2022/10/07 08:01:45;;;;;;;;;42.67;33.67;;;;;18.30;83.46;100902.00;6319231;20;3609632;-60
2022/10/07 08:04:15;;;;;;;;;26.33;26.00;;;;;18.33;81.82;100906.34;6282955;20;3601527;-59
2022/10/07 08:06:44;;;;;;;;;25.33;23.00;;;;;18.80;80.44;100899.16;6286034;20;3595642;-60
2022/10/07 08:09:12;;;;;;;;;26.33;25.33;;;;;18.86;80.81;100899.56;6285974;20;3596157;-59
2022/10/07 08:11:44;;;;;;;;;24.67;24.67;;;;;18.70;81.60;100900.84;6280939;20;3582628;-59
2022/10/07 08:14:15;;;;;;;;;25.00;25.00;;;;;18.67;81.27;100899.22;6284193;20;3591971;-60
2022/10/07 08:16:43;;;;;;;;;24.33;23.67;;;;;18.68;79.93;100889.19;6283675;20;3589896;-60
2022/10/07 08:19:12;;;;;;;;;22.00;20.00;;;;;18.61;79.52;100896.94;6287336;20;3580573;-59
2022/10/07 08:21:41;;;;;;;;;24.00;24.00;;;;;18.53;80.99;100900.25;6286909;20;3479475;-59
2022/10/07 08:24:12;;;;;;;;;24.67;23.00;;;;;18.56;80.15;100893.69;6312171;20;3584633;-60
2022/10/07 08:26:41;;;;;;;;;24.67;24.67;;;;;18.85;80.12;100896.94;6282005;20;3574334;-55
2022/10/07 08:29:12;;;;;;;;;24.33;22.33;;;;;18.72;79.73;100887.97;6281500;20;3590909;-61
2022/10/07 08:31:41;;;;;;;;;25.00;24.00;;;;;19.20;78.33;100901.53;6287185;20;3598231;-61
2022/10/07 08:34:11;;;;;;;;;24.67;22.00;;;;;18.72;79.03;100896.13;6286492;20;3582674;-61
2022/10/07 08:36:42;;;;;;;;;23.67;22.33;;;;;18.91;79.46;100888.34;6287054;20;3579445;-62
2022/10/07 08:39:11;;;;;;;;;22.00;21.00;;;;;18.87;78.30;100894.97;6279930;20;3573384;-62
2022/10/07 08:42:13;;;;;;;;;22.67;21.33;;;;;18.58;78.81;100892.59;6280997;20;3564829;-61
2022/10/07 08:44:49;;;;;;;;;18.33;18.33;;;;;18.81;78.89;100896.31;6285862;20;3561849;-61
2022/10/07 08:47:43;;;;;;;;;20.00;18.33;;;;;18.58;78.42;100889.03;6312775;20;3575330;-56
2022/10/07 08:50:24;;;;;;;;;25.67;23.33;;;;;18.64;79.78;100884.00;6285923;20;3582586;-56
2022/10/07 08:53:01;;;;;;;;;19.33;16.33;;;;;19.11;79.38;100894.06;6286273;20;2825333;-55
2022/10/07 08:55:53;;;;;;;;;21.67;19.67;;;;;19.40;77.75;100881.75;6313183;20;3569159;-54
2022/10/07 08:58:59;;;;;;;;;25.67;25.67;;;;;18.89;78.99;100882.13;6285004;20;3599245;-57
2022/10/07 09:02:17;;;;;;;;;21.67;18.67;;;;;19.25;78.17;100878.41;6290997;20;3562773;-55
2022/10/07 09:05:23;;;;;;;;;22.00;20.67;;;;;19.33;77.26;100877.78;6288431;20;3577349;-51
2022/10/07 09:07:59;;;;;;;;;21.00;19.67;;;;;19.48;77.83;100872.97;6287944;20;3561184;-52
2022/10/07 09:10:41;;;;;;;;;20.00;19.00;;;;;19.68;76.64;100871.41;6280250;20;3568368;-51
2022/10/07 09:13:34;;;;;;;;;21.50;20.00;;;;;19.55;76.31;100867.91;6287592;20;2840999;-51
2022/10/07 09:16:15;;;;;;;;;19.00;18.00;;;;;19.73;76.28;100867.31;6282933;20;3567999;-51
2022/10/07 09:18:59;;;;;;;;;19.67;17.67;;;;;19.77;76.24;100857.00;6280979;20;2835709;-51
2022/10/07 09:21:43;;;;;;;;;22.33;19.00;;;;;19.57;76.73;100860.47;6314056;20;3575318;-52
2022/10/07 09:24:24;;;;;;;;;21.00;18.00;;;;;19.65;77.49;100850.69;6283501;20;3578527;-53
2022/10/07 09:26:57;;;;;;;;;16.50;16.50;;;;;20.11;75.55;100851.53;6283821;20;2485692;-52
2022/10/07 09:29:30;;;;;;;;;18.00;18.00;;;;;19.95;75.73;100850.06;6279400;20;2841995;-51
2022/10/07 09:31:58;;;;;;;;;17.00;17.00;;;;;20.61;74.21;100854.63;6315787;20;2829501;-50
2022/10/07 09:34:30;;;;;;;;;18.67;17.00;;;;;20.02;73.38;100849.56;6277701;20;3568998;-51
2022/10/07 09:37:20;;;;;;;;;19.33;17.00;;;;;19.86;75.38;100845.38;6279061;20;3573234;-54
2022/10/07 09:39:56;;;;;;;;;22.33;19.67;;;;;20.09;74.88;100845.31;6284402;20;3578377;-52
2022/10/07 09:42:38;;;;;;;;;25.67;23.00;;;;;20.34;74.44;100833.25;6285356;20;3596112;-48
2022/10/07 09:45:22;;;;;;;;;20.33;18.33;;;;;20.52;74.37;100836.28;6283870;20;3555653;-54
2022/10/07 09:47:58;;;;;;;;;19.00;17.00;;;;;20.30;74.14;100824.47;6316847;20;3561704;-53
2022/10/07 09:50:41;;;;;;;;;24.67;18.67;;;;;20.42;73.73;100818.94;6311440;20;3587765;-53
2022/10/07 09:53:24;;;;;;;;;20.00;17.00;;;;;20.55;73.71;100819.66;6283606;20;2483634;-53
2022/10/07 09:55:54;;;;;;;;;21.67;19.33;;;;;20.68;73.90;100824.94;6316176;20;3574811;-54
2022/10/07 09:58:30;;;;;;;;;19.67;18.33;;;;;20.67;73.82;100812.28;6288189;20;3571220;-54
2022/10/07 10:01:02;;;;;;;;;17.50;17.50;;;;;20.78;72.19;100815.84;6278967;20;2841958;-53
2022/10/07 10:03:35;;;;;;;;;18.50;18.50;;;;;20.87;73.12;100811.44;6282556;20;2828580;-55
2022/10/07 10:06:08;;;;;;;;;16.67;13.67;;;;;21.35;73.34;100812.72;6281466;20;2492094;-56
2022/10/07 10:08:44;;;;;;;;;21.00;19.33;;;;;21.14;72.12;100808.13;6315208;20;3576394;-55
2022/10/07 10:11:19;;;;;;;;;19.00;19.00;;;;;21.00;73.74;100808.50;6280583;20;2840935;-52
2022/10/07 10:13:50;;;;;;;;;18.33;16.00;;;;;21.08;71.90;100797.78;6282984;20;2837791;-48
2022/10/07 10:16:24;;;;;;;;;13.50;13.50;;;;;20.95;70.53;100799.84;6319124;20;2483595;-51
2022/10/07 10:19:01;;;;;;;;;14.00;13.50;;;;;20.99;70.62;100787.66;6312039;20;2810729;-49
2022/10/07 10:21:39;;;;;;;;;22.33;18.00;;;;;20.84;70.79;100787.13;6282649;20;3574200;-53
2022/10/07 10:24:15;;;;;;;;;13.00;13.00;;;;;21.26;69.78;100779.75;6283340;20;2803416;-49
2022/10/07 10:26:54;;;;;;;;;13.33;13.33;;;;;21.34;69.40;100790.00;6284446;20;2807615;-50
2022/10/07 10:30:04;;;;;;;;;16.67;16.67;;;;;21.32;70.34;100785.66;6316208;20;3566032;-49
2022/10/07 10:33:24;;;;;;;;;15.00;14.00;;;;;21.31;70.13;100773.88;6280909;20;2791996;-54
2022/10/07 10:36:13;;;;;;;;;11.67;10.33;;;;;21.17;70.50;100775.13;6280833;20;3512804;-51
2022/10/07 10:39:03;;;;;;;;;16.00;15.00;;;;;21.46;69.43;100771.69;6280593;20;3546142;-50
2022/10/07 10:41:47;;;;;;;;;15.00;11.00;;;;;21.21;69.41;100771.09;6281299;20;2483741;-51
2022/10/07 10:45:17;;;;;;;;;12.00;10.00;;;;;21.42;68.85;100762.88;6308547;20;2791955;-53
2022/10/07 10:48:28;;;;;;;;;18.33;16.00;;;;;21.43;69.18;100761.00;6312791;20;3562840;-52
2022/10/07 10:51:45;;;;;;;;;12.67;12.00;;;;;21.42;68.72;100759.28;6280824;20;3516945;-53
2022/10/07 10:54:50;;;;;;;;;13.00;13.00;;;;;21.29;68.42;100747.69;6277456;20;2491968;-53
2022/10/07 10:58:12;;;;;;;;;13.00;13.00;;;;;21.14;68.67;100739.84;6303542;20;3537755;-52
2022/10/07 11:01:28;;;;;;;;;13.67;13.67;;;;;21.49;68.86;100741.34;6280720;20;2489868;-50
2022/10/07 11:04:26;;;;;;;;;14.00;12.33;;;;;21.69;66.71;100739.50;6311512;20;2483614;-52
2022/10/07 11:07:11;;;;;;;;;12.67;10.67;;;;;21.43;67.96;100728.22;6310194;20;2489872;-51
2022/10/07 11:09:51;;;;;;;;;12.67;12.00;;;;;21.64;67.96;100726.28;6311909;20;3519046;-57
2022/10/07 11:12:45;;;;;;;;;12.33;11.00;;;;;21.33;66.63;100721.81;6313087;20;2483629;-52
2022/10/07 11:15:46;;;;;;;;;13.33;12.00;;;;;21.20;68.35;100714.75;6307833;20;3528553;-49
2022/10/07 11:18:38;;;;;;;;;14.00;12.00;;;;;21.71;69.09;100707.44;6286366;20;3533729;-54
2022/10/07 11:21:39;;;;;;;;;12.00;12.00;;;;;21.68;68.60;100705.84;6305839;20;3537755;-55
2022/10/07 11:24:22;;;;;;;;;13.00;13.00;;;;;21.86;66.91;100702.44;6275089;20;2483630;-57
2022/10/07 11:27:08;;;;;;;;;11.33;10.33;;;;;22.04;66.78;100700.72;6302944;20;2790940;-54
2022/10/07 11:30:14;;;;;;;;;12.00;11.33;;;;;21.74;66.49;100701.69;6304123;20;3516038;-58
2022/10/07 11:33:23;;;;;;;;;13.00;11.00;;;;;21.73;66.43;100696.38;6302924;20;3533727;-55
2022/10/07 11:36:17;;;;;;;;;12.33;12.00;;;;;21.67;64.61;100690.47;6269676;20;3513931;-55
2022/10/07 11:38:48;;;;;;;;;11.67;11.67;;;;;21.76;67.16;100682.41;6306462;20;2789015;-57